createdAt,value
2019-05-18T00:01:42.489Z,13.60
2019-05-18T00:04:11.513Z,13.60
2019-05-18T00:06:40.505Z,13.60
2019-05-18T00:09:09.509Z,13.60
2019-05-18T00:11:38.500Z,13.60
2019-05-18T00:14:07.010Z,13.70
2019-05-18T00:16:36.011Z,13.80
2019-05-18T00:19:05.347Z,13.90
2019-05-18T00:21:34.389Z,13.80
2019-05-18T00:24:03.366Z,13.70
2019-05-18T00:26:32.359Z,13.70
2019-05-18T00:29:00.798Z,13.60
2019-05-18T00:31:29.809Z,13.60
2019-05-18T00:33:58.820Z,13.70
2019-05-18T00:36:28.292Z,13.70
2019-05-18T00:38:57.566Z,13.80
2019-05-18T00:41:26.011Z,13.80
2019-05-18T00:43:55.003Z,13.90
2019-05-18T00:46:24.022Z,13.90
2019-05-18T00:48:52.458Z,13.90
2019-05-18T00:51:23.283Z,13.90
2019-05-18T00:53:52.269Z,13.90
2019-05-18T00:56:21.274Z,13.90
2019-05-18T00:58:50.276Z,13.90
2019-05-18T01:01:19.266Z,13.90
2019-05-18T01:03:48.251Z,13.90
2019-05-18T01:06:16.781Z,13.90
2019-05-18T01:08:45.795Z,13.90
2019-05-18T01:11:14.881Z,13.90
2019-05-18T01:13:44.613Z,13.90
2019-05-18T01:16:13.629Z,13.80
2019-05-18T01:18:42.618Z,13.80
2019-05-18T01:21:11.074Z,13.80
2019-05-18T01:23:40.049Z,13.80
2019-05-18T01:26:09.057Z,13.80
2019-05-18T01:28:38.040Z,13.90
2019-05-18T01:31:07.068Z,14.00
2019-05-18T01:33:36.041Z,14.00
2019-05-18T01:36:05.152Z,13.90
2019-05-18T01:38:34.112Z,13.90
2019-05-18T01:41:03.152Z,13.70
2019-05-18T01:43:32.160Z,13.60
2019-05-18T01:46:01.818Z,13.50
2019-05-18T01:48:30.812Z,13.40
2019-05-18T01:50:59.823Z,13.30
2019-05-18T01:53:28.829Z,13.20
2019-05-18T01:55:57.283Z,13.10
2019-05-18T01:58:26.277Z,13.20
2019-05-18T02:00:55.282Z,13.20
2019-05-18T02:03:25.988Z,13.10
2019-05-18T02:05:54.998Z,13.00
2019-05-18T02:08:23.490Z,13.00
2019-05-18T02:10:52.504Z,12.90
2019-05-18T02:13:21.493Z,12.80
2019-05-18T02:15:50.576Z,12.80
2019-05-18T02:18:28.827Z,12.70
2019-05-18T02:20:49.745Z,12.60
2019-05-18T02:23:19.281Z,12.70
2019-05-18T02:25:48.286Z,12.70
2019-05-18T02:28:17.286Z,12.80
2019-05-18T02:30:46.357Z,12.70
2019-05-18T02:33:15.379Z,12.80
2019-05-18T02:35:43.821Z,12.60
2019-05-18T02:38:20.016Z,12.50
2019-05-18T02:40:49.590Z,12.50
2019-05-18T02:43:18.654Z,12.60
2019-05-18T02:45:47.663Z,12.60
2019-05-18T02:48:16.271Z,12.60
2019-05-18T02:50:45.353Z,12.70
2019-05-18T02:53:14.430Z,12.70
2019-05-18T02:55:43.423Z,12.50
2019-05-18T02:58:12.445Z,12.40
2019-05-18T03:00:40.915Z,12.40
2019-05-18T03:03:09.924Z,12.40
2019-05-18T03:05:38.900Z,12.50
2019-05-18T03:08:07.918Z,12.60
2019-05-18T03:10:42.691Z,12.50
2019-05-18T03:13:11.224Z,12.60
2019-05-18T03:15:40.251Z,12.40
2019-05-18T03:18:09.278Z,12.20
2019-05-18T03:20:39.393Z,12.20
2019-05-18T03:23:08.404Z,12.40
2019-05-18T03:25:37.426Z,12.40
2019-05-18T03:28:07.395Z,12.50
2019-05-18T03:30:36.448Z,12.40
2019-05-18T03:33:05.452Z,12.40
2019-05-18T03:35:35.079Z,12.50
2019-05-18T03:38:04.733Z,12.50
2019-05-18T03:40:34.084Z,12.50
2019-05-18T03:43:03.098Z,12.50
2019-05-18T03:45:32.155Z,12.30
2019-05-18T03:48:01.163Z,12.10
2019-05-18T03:50:30.183Z,12.10
2019-05-18T03:52:58.647Z,12.20
2019-05-18T03:55:27.666Z,12.20
2019-05-18T03:57:56.716Z,12.10
2019-05-18T04:00:25.707Z,12.10
2019-05-18T04:02:54.712Z,12.10
2019-05-18T04:05:23.706Z,12.10
2019-05-18T04:07:52.169Z,12.00
2019-05-18T04:10:28.807Z,12.10
2019-05-18T04:12:57.835Z,12.20
2019-05-18T04:15:26.847Z,12.40
2019-05-18T04:17:56.503Z,12.50
2019-05-18T04:20:24.995Z,12.20
2019-05-18T04:22:54.001Z,12.10
2019-05-18T04:25:23.013Z,12.20
2019-05-18T04:27:52.010Z,12.00
2019-05-18T04:30:21.116Z,12.00
2019-05-18T04:32:50.101Z,11.90
2019-05-18T04:35:19.334Z,11.90
2019-05-18T04:37:48.331Z,12.00
2019-05-18T04:40:17.464Z,12.10
2019-05-18T04:42:46.451Z,12.20
2019-05-18T04:45:15.705Z,12.30
2019-05-18T04:47:48.527Z,12.20
2019-05-18T04:50:19.291Z,12.20
2019-05-18T04:52:48.299Z,12.10
2019-05-18T04:55:17.387Z,12.10
2019-05-18T04:57:46.423Z,12.20
2019-05-18T05:00:15.419Z,12.20
2019-05-18T05:02:44.398Z,12.30
2019-05-18T05:05:13.623Z,12.40
2019-05-18T05:07:42.595Z,12.40
2019-05-18T05:10:12.455Z,12.40
2019-05-18T05:12:41.449Z,12.50
2019-05-18T05:15:10.097Z,12.40
2019-05-18T05:17:39.126Z,12.50
2019-05-18T05:20:19.267Z,12.50
2019-05-18T05:22:39.051Z,12.70
2019-05-18T05:25:08.222Z,12.80
2019-05-18T05:27:36.735Z,13.00
2019-05-18T05:30:07.767Z,13.10
2019-05-18T05:32:36.747Z,13.10
2019-05-18T05:35:08.291Z,13.10
2019-05-18T05:37:37.390Z,13.20
2019-05-18T05:40:07.101Z,13.30
2019-05-18T05:42:36.084Z,13.30
2019-05-18T05:45:06.735Z,13.40
2019-05-18T05:47:35.742Z,13.40
2019-05-18T05:50:07.703Z,13.50
2019-05-18T05:52:36.380Z,13.50
2019-05-18T05:55:09.938Z,13.50
2019-05-18T05:57:38.955Z,13.60
2019-05-18T06:00:09.877Z,13.70
2019-05-18T06:02:38.895Z,13.70
2019-05-18T06:05:07.786Z,13.70
2019-05-18T06:07:36.823Z,13.70
2019-05-18T06:10:07.372Z,13.80
2019-05-18T06:12:36.346Z,13.90
2019-05-18T06:15:09.595Z,14.00
2019-05-18T06:17:38.079Z,14.10
2019-05-18T06:20:08.507Z,14.20
2019-05-18T06:22:38.495Z,14.20
2019-05-18T06:25:08.304Z,14.20
2019-05-18T06:27:39.063Z,14.30
2019-05-18T06:30:08.893Z,14.40
2019-05-18T06:32:37.962Z,14.40
2019-05-18T06:35:07.119Z,14.50
2019-05-18T06:37:36.102Z,14.60
2019-05-18T06:40:07.844Z,14.60
2019-05-18T06:42:40.259Z,14.60
2019-05-18T06:45:12.800Z,14.50
2019-05-18T06:47:44.363Z,14.60
2019-05-18T06:50:13.566Z,14.60
2019-05-18T06:52:42.687Z,14.60
2019-05-18T06:55:13.479Z,14.50
2019-05-18T06:57:44.430Z,14.70
2019-05-18T07:00:18.220Z,14.90
2019-05-18T07:02:49.607Z,15.00
2019-05-18T07:05:18.625Z,15.10
2019-05-18T07:07:47.606Z,15.10
2019-05-18T07:10:16.210Z,15.10
2019-05-18T07:12:49.479Z,15.10
2019-05-18T07:15:22.199Z,14.90
2019-05-18T07:17:54.181Z,15.00
2019-05-18T07:20:23.377Z,15.00
2019-05-18T07:22:52.058Z,15.20
2019-05-18T07:25:23.238Z,15.20
2019-05-18T07:27:52.005Z,15.30
2019-05-18T07:30:20.986Z,15.30
2019-05-18T07:32:50.070Z,15.30
2019-05-18T07:35:18.753Z,15.30
2019-05-18T07:37:47.781Z,15.30
2019-05-18T07:40:17.527Z,15.50
2019-05-18T07:42:46.532Z,15.50
2019-05-18T07:45:17.092Z,15.70
2019-05-18T07:47:46.070Z,15.60
2019-05-18T07:50:15.681Z,15.80
2019-05-18T07:52:44.697Z,15.70
2019-05-18T07:55:15.526Z,15.70
2019-05-18T07:57:47.210Z,15.80
2019-05-18T08:00:17.457Z,15.90
2019-05-18T08:02:46.138Z,16.10
2019-05-18T08:05:17.724Z,15.90
2019-05-18T08:07:47.768Z,16.10
2019-05-18T08:10:21.058Z,16.20
2019-05-18T08:12:51.064Z,16.30
2019-05-18T08:15:19.747Z,16.30
2019-05-18T08:17:48.802Z,16.30
2019-05-18T08:20:19.026Z,16.20
2019-05-18T08:22:49.140Z,16.40
2019-05-18T08:25:18.159Z,16.30
2019-05-18T08:27:48.253Z,16.30
2019-05-18T08:30:17.489Z,16.30
2019-05-18T08:32:46.075Z,16.50
2019-05-18T08:35:17.831Z,16.60
2019-05-18T08:37:47.949Z,16.60
2019-05-18T08:40:17.306Z,16.50
2019-05-18T08:42:47.483Z,16.40
2019-05-18T08:45:18.577Z,16.60
2019-05-18T08:47:57.705Z,16.80
2019-05-18T08:50:24.123Z,17.00
2019-05-18T08:52:53.115Z,17.00
2019-05-18T08:55:22.141Z,17.00
2019-05-18T08:57:50.599Z,16.90
2019-05-18T09:00:20.307Z,17.20
2019-05-18T09:02:49.290Z,17.30
2019-05-18T09:05:18.974Z,17.20
2019-05-18T09:07:47.987Z,17.20
2019-05-18T09:10:17.533Z,17.30
2019-05-18T09:12:45.964Z,17.30
2019-05-18T09:15:15.299Z,17.40
2019-05-18T09:17:44.371Z,17.50
2019-05-18T09:20:13.786Z,17.50
2019-05-18T09:22:42.784Z,17.70
2019-05-18T09:25:11.462Z,17.70
2019-05-18T09:27:40.505Z,17.70
2019-05-18T09:30:10.964Z,17.70
2019-05-18T09:32:40.091Z,17.70
2019-05-18T09:35:10.257Z,17.90
2019-05-18T09:37:38.770Z,18.00
2019-05-18T09:40:08.634Z,18.10
2019-05-18T09:42:37.898Z,18.20
2019-05-18T09:45:08.824Z,18.30
2019-05-18T09:47:37.862Z,18.30
2019-05-18T09:50:09.121Z,18.50
2019-05-18T09:52:46.112Z,18.30
2019-05-18T09:55:11.370Z,18.50
2019-05-18T09:57:40.403Z,18.50
2019-05-18T10:00:12.346Z,18.60
2019-05-18T10:02:42.884Z,18.20
2019-05-18T10:05:11.471Z,18.40
2019-05-18T10:07:40.483Z,18.60
2019-05-18T10:10:10.025Z,18.60
2019-05-18T10:12:39.406Z,18.70
2019-05-18T10:15:09.057Z,18.70
2019-05-18T10:17:38.606Z,18.40
2019-05-18T10:20:09.221Z,18.50
2019-05-18T10:22:51.252Z,18.50
2019-05-18T10:25:11.362Z,19.00
2019-05-18T10:27:40.445Z,19.00
2019-05-18T10:30:10.082Z,18.60
2019-05-18T10:32:39.134Z,18.60
2019-05-18T10:35:09.981Z,19.00
2019-05-18T10:37:39.045Z,19.00
2019-05-18T10:40:11.415Z,18.90
2019-05-18T10:42:39.872Z,19.10
2019-05-18T10:45:10.780Z,19.30
2019-05-18T10:47:39.880Z,18.90
2019-05-18T10:50:09.705Z,18.90
2019-05-18T10:52:40.244Z,19.20
2019-05-18T10:55:09.871Z,19.40
2019-05-18T10:57:38.423Z,19.50
2019-05-18T11:00:12.238Z,19.20
2019-05-18T11:02:41.323Z,19.30
2019-05-18T11:05:10.901Z,19.50
2019-05-18T11:07:39.942Z,19.70
2019-05-18T11:10:10.386Z,19.50
2019-05-18T11:12:39.655Z,19.50
2019-05-18T11:15:11.111Z,19.70
2019-05-18T11:17:40.301Z,19.90
2019-05-18T11:20:10.037Z,19.80
2019-05-18T11:23:09.921Z,20.10
2019-05-18T11:25:40.076Z,20.10
2019-05-18T11:28:09.076Z,19.60
2019-05-18T11:30:38.075Z,19.80
2019-05-18T11:33:07.094Z,20.10
2019-05-18T11:35:36.072Z,20.30
2019-05-18T11:38:04.559Z,20.20
2019-05-18T11:40:33.571Z,20.20
2019-05-18T11:43:03.693Z,20.30
2019-05-18T11:45:32.810Z,20.10
2019-05-18T11:48:01.833Z,20.10
2019-05-18T11:50:30.298Z,20.10
2019-05-18T11:52:59.304Z,20.20
2019-05-18T11:55:28.379Z,20.20
2019-05-18T11:57:57.365Z,20.50
2019-05-18T12:00:27.111Z,20.20
2019-05-18T12:02:56.106Z,20.90
2019-05-18T12:05:26.285Z,20.80
2019-05-18T12:07:56.034Z,21.50
2019-05-18T12:10:25.103Z,21.10
2019-05-18T12:12:54.086Z,21.20
2019-05-18T12:15:23.510Z,20.70
2019-05-18T12:17:52.510Z,20.50
2019-05-18T12:20:21.746Z,20.90
2019-05-18T12:22:50.178Z,21.30
2019-05-18T12:25:19.419Z,21.20
2019-05-18T12:27:48.509Z,21.50
2019-05-18T12:30:18.021Z,21.60
2019-05-18T12:32:47.028Z,21.10
2019-05-18T12:35:16.311Z,21.10
2019-05-18T12:37:44.811Z,21.20
2019-05-18T12:40:16.918Z,21.10
2019-05-18T12:42:46.184Z,21.50
2019-05-18T12:45:15.540Z,21.90
2019-05-18T12:47:44.562Z,22.00
2019-05-18T12:50:13.475Z,21.80
2019-05-18T12:52:42.467Z,21.60
2019-05-18T12:55:35.691Z,21.80
2019-05-18T12:58:04.691Z,22.30
2019-05-18T13:00:33.290Z,22.70
2019-05-18T13:03:02.403Z,22.40
2019-05-18T13:05:31.415Z,21.70
2019-05-18T13:08:00.414Z,21.80
2019-05-18T13:10:29.498Z,21.20
2019-05-18T13:12:58.488Z,21.50
2019-05-18T13:15:27.009Z,21.80
2019-05-18T13:17:55.990Z,21.90
2019-05-18T13:20:25.266Z,22.10
2019-05-18T13:22:54.297Z,22.30
2019-05-18T13:25:37.418Z,22.40
2019-05-18T13:28:09.598Z,22.60
2019-05-18T13:30:38.613Z,22.50
2019-05-18T13:33:07.683Z,22.80
2019-05-18T13:35:36.973Z,22.80
2019-05-18T13:38:05.510Z,22.50
2019-05-18T13:40:34.562Z,21.90
2019-05-18T13:43:03.600Z,22.10
2019-05-18T13:45:32.656Z,22.30
2019-05-18T13:48:01.702Z,21.80
2019-05-18T13:50:30.798Z,21.80
2019-05-18T13:52:59.279Z,21.90
2019-05-18T13:55:28.281Z,22.00
2019-05-18T13:57:57.289Z,21.80
2019-05-18T14:00:26.409Z,22.30
2019-05-18T14:02:55.401Z,22.00
2019-05-18T14:05:24.473Z,22.40
2019-05-18T14:07:52.976Z,22.40
2019-05-18T14:10:34.073Z,22.70
2019-05-18T14:13:03.153Z,22.50
2019-05-18T14:15:32.171Z,22.60
2019-05-18T14:18:00.709Z,22.70
2019-05-18T14:20:53.963Z,21.80
2019-05-18T14:23:22.959Z,21.90
2019-05-18T14:25:51.476Z,22.40
2019-05-18T14:28:20.478Z,22.40
2019-05-18T14:30:49.486Z,22.40
2019-05-18T14:33:18.488Z,22.70
2019-05-18T14:35:46.934Z,22.00
2019-05-18T14:38:15.927Z,21.40
2019-05-18T14:40:44.928Z,21.50
2019-05-18T14:43:15.866Z,21.80
2019-05-18T14:45:49.462Z,21.90
2019-05-18T14:48:22.473Z,22.20
2019-05-18T14:50:51.393Z,22.50
2019-05-18T14:53:20.540Z,22.10
2019-05-18T14:55:50.687Z,21.40
2019-05-18T14:58:19.748Z,20.70
2019-05-18T15:00:48.285Z,20.10
2019-05-18T15:03:18.359Z,19.70
2019-05-18T15:06:08.939Z,19.50
2019-05-18T15:08:38.016Z,19.30
2019-05-18T15:11:06.602Z,18.90
2019-05-18T15:13:36.852Z,18.60
2019-05-18T15:26:00.119Z,17.00
2019-05-18T15:28:21.606Z,16.80
2019-05-18T15:30:51.984Z,16.90
2019-05-18T15:33:27.148Z,16.90
2019-05-18T15:35:51.779Z,16.70
2019-05-18T15:38:21.900Z,16.60
2019-05-18T15:40:50.431Z,15.80
2019-05-18T15:43:19.545Z,15.30
2019-05-18T15:45:48.587Z,15.20
2019-05-18T15:48:17.682Z,15.40
2019-05-18T15:50:52.342Z,15.20
2019-05-18T15:53:20.790Z,15.30
2019-05-18T15:56:04.469Z,14.90
2019-05-18T15:58:20.518Z,14.80
2019-05-18T16:00:49.518Z,15.30
2019-05-18T16:03:21.251Z,16.10
2019-05-18T16:05:49.698Z,15.90
2019-05-18T16:08:18.714Z,16.00
2019-05-18T16:10:47.707Z,15.60
2019-05-18T16:13:16.819Z,15.70
2019-05-18T16:15:45.802Z,16.00
2019-05-18T16:18:14.800Z,16.10
2019-05-18T16:20:43.222Z,16.00
2019-05-18T16:23:12.232Z,15.70
2019-05-18T16:25:41.238Z,15.70
2019-05-18T16:28:10.318Z,15.60
2019-05-18T16:30:39.370Z,15.40
2019-05-18T16:33:08.388Z,15.50
2019-05-18T16:35:36.819Z,15.20
2019-05-18T16:38:05.818Z,15.20
2019-05-18T16:40:34.807Z,15.10
2019-05-18T16:43:03.843Z,15.00
2019-05-18T16:45:32.894Z,15.20
2019-05-18T16:48:01.352Z,14.90
2019-05-18T16:50:30.349Z,14.60
2019-05-18T16:52:59.362Z,14.90
2019-05-18T16:55:28.348Z,15.40
2019-05-18T16:57:57.352Z,15.40
2019-05-18T17:00:26.476Z,15.20
2019-05-18T17:02:54.926Z,14.70
2019-05-18T17:05:23.916Z,15.10
2019-05-18T17:07:52.919Z,15.10
2019-05-18T17:10:22.130Z,15.10
2019-05-18T17:12:51.212Z,15.00
2019-05-18T17:15:20.545Z,14.90
2019-05-18T17:17:48.983Z,14.60
2019-05-18T17:20:18.235Z,14.40
2019-05-18T17:22:47.278Z,14.40
2019-05-18T17:25:16.325Z,14.00
2019-05-18T17:27:44.809Z,14.00
2019-05-18T17:30:14.981Z,14.30
2019-05-18T17:32:43.963Z,14.10
2019-05-18T17:35:13.089Z,14.20
2019-05-18T17:37:42.073Z,14.20
2019-05-18T17:40:11.262Z,14.30
2019-05-18T17:42:40.320Z,14.50
2019-05-18T17:45:09.942Z,14.70
2019-05-18T17:47:38.928Z,14.50
2019-05-18T17:50:08.961Z,13.90
2019-05-18T17:52:38.128Z,14.00
2019-05-18T17:55:07.578Z,14.10
2019-05-18T17:57:36.131Z,14.50
2019-05-18T18:00:09.816Z,14.40
2019-05-18T18:02:38.890Z,14.50
2019-05-18T18:05:09.550Z,14.80
2019-05-18T18:07:38.595Z,14.90
2019-05-18T18:10:08.436Z,14.90
2019-05-18T18:12:38.364Z,15.00
2019-05-18T18:15:08.664Z,15.10
2019-05-18T18:17:37.645Z,15.00
2019-05-18T18:20:07.677Z,15.00
2019-05-18T18:22:36.670Z,15.00
2019-05-18T18:25:06.236Z,14.70
2019-05-18T18:27:35.284Z,14.70
2019-05-18T18:30:08.803Z,14.90
2019-05-18T18:32:37.800Z,15.00
2019-05-18T18:35:07.526Z,14.70
2019-05-18T18:37:36.029Z,14.50
2019-05-18T18:40:06.474Z,14.30
2019-05-18T18:42:35.447Z,14.10
2019-05-18T18:45:06.378Z,14.20
2019-05-18T18:47:35.364Z,14.40
2019-05-18T18:50:05.451Z,14.50
2019-05-18T18:52:34.426Z,14.40
2019-05-18T18:55:03.413Z,14.50
2019-05-18T18:57:40.685Z,14.50
2019-05-18T19:00:03.189Z,14.40
2019-05-18T19:02:32.178Z,14.30
2019-05-18T19:05:00.693Z,14.20
2019-05-18T19:07:29.665Z,14.40
2019-05-18T19:09:58.657Z,14.50
2019-05-18T19:12:27.631Z,14.50
2019-05-18T19:14:56.639Z,14.70
2019-05-18T19:17:25.096Z,14.80
2019-05-18T19:19:54.094Z,14.80
2019-05-18T19:22:23.077Z,14.80
2019-05-18T19:24:55.487Z,14.70
2019-05-18T19:27:22.764Z,14.70
2019-05-18T19:29:51.752Z,14.60
2019-05-18T19:32:20.203Z,14.60
2019-05-18T19:34:49.253Z,14.60
2019-05-18T19:37:18.325Z,14.30
2019-05-18T19:39:47.307Z,14.40
2019-05-18T19:42:17.369Z,14.50
2019-05-18T19:44:45.807Z,14.30
2019-05-18T19:47:14.798Z,14.50
2019-05-18T19:49:43.790Z,14.50
2019-05-18T19:52:12.812Z,14.40
2019-05-18T19:54:41.785Z,14.60
2019-05-18T19:57:11.593Z,14.70
2019-05-18T19:59:40.075Z,14.70
2019-05-18T20:02:09.084Z,14.70
2019-05-18T20:04:38.123Z,14.70
2019-05-18T20:07:07.126Z,14.70
2019-05-18T20:09:36.099Z,14.70
2019-05-18T20:12:04.591Z,14.70
2019-05-18T20:14:33.583Z,14.70
2019-05-18T20:17:02.679Z,14.60
2019-05-18T20:19:39.457Z,14.60
2019-05-18T20:22:02.497Z,14.40
2019-05-18T20:24:31.539Z,14.50
2019-05-18T20:26:59.986Z,14.50
2019-05-18T20:29:29.731Z,14.60
2019-05-18T20:31:58.830Z,14.60
2019-05-18T20:34:27.806Z,14.60
2019-05-18T20:36:56.800Z,14.60
2019-05-18T20:39:25.268Z,14.60
2019-05-18T20:41:54.262Z,14.60
2019-05-18T20:44:23.249Z,14.60
2019-05-18T20:46:52.241Z,14.60
2019-05-18T20:49:21.244Z,14.60
2019-05-18T20:51:50.326Z,14.60
2019-05-18T20:54:18.734Z,14.60
2019-05-18T20:56:47.734Z,14.60
2019-05-18T20:59:16.718Z,14.60
2019-05-18T21:01:45.730Z,14.50
2019-05-18T21:04:14.727Z,14.50
2019-05-18T21:06:45.510Z,14.50
2019-05-18T21:09:13.925Z,14.50
2019-05-18T21:11:42.992Z,14.50
2019-05-18T21:14:11.987Z,14.20
2019-05-18T21:16:40.978Z,14.30
2019-05-18T21:19:09.418Z,14.30
2019-05-18T21:21:38.501Z,14.20
2019-05-18T21:24:07.491Z,14.30
2019-05-18T21:26:36.546Z,14.40
2019-05-18T21:29:05.531Z,14.30
2019-05-18T21:31:34.541Z,14.10
2019-05-18T21:34:03.043Z,13.90
2019-05-18T21:36:32.041Z,14.00
2019-05-18T21:39:01.028Z,14.00
2019-05-18T21:41:30.027Z,13.90
2019-05-18T21:43:59.063Z,13.90
2019-05-18T21:46:27.505Z,13.80
2019-05-18T21:48:56.487Z,13.80
2019-05-18T21:51:25.490Z,13.80
2019-05-18T21:53:54.487Z,13.80
2019-05-18T21:56:23.506Z,13.80
2019-05-18T21:58:52.478Z,13.80
2019-05-18T22:01:20.914Z,13.80
2019-05-18T22:03:49.895Z,13.80
2019-05-18T22:06:18.891Z,13.70
2019-05-18T22:08:47.956Z,13.70
2019-05-18T22:11:16.937Z,13.70
2019-05-18T22:13:45.396Z,13.70
2019-05-18T22:16:14.394Z,13.70
2019-05-18T22:18:43.407Z,13.70
2019-05-18T22:21:12.427Z,13.70
2019-05-18T22:23:41.515Z,13.70
2019-05-18T22:26:10.575Z,13.80
2019-05-18T22:28:39.021Z,13.80
2019-05-18T22:31:08.014Z,13.80
2019-05-18T22:33:37.089Z,13.80
2019-05-18T22:36:06.061Z,13.80
2019-05-18T22:38:35.058Z,13.80
2019-05-18T22:41:04.059Z,13.80
2019-05-18T22:43:32.510Z,13.50
2019-05-18T22:46:01.479Z,13.40
2019-05-18T22:48:40.856Z,13.40
2019-05-18T22:51:01.203Z,13.20
2019-05-18T22:53:30.224Z,13.20
2019-05-18T22:55:58.658Z,13.20
2019-05-18T22:58:27.664Z,13.30
2019-05-18T23:00:56.638Z,13.40
2019-05-18T23:03:25.642Z,13.30
2019-05-18T23:05:54.630Z,13.30
2019-05-18T23:08:23.077Z,13.30
2019-05-18T23:10:52.066Z,13.40
2019-05-18T23:13:21.063Z,13.50
2019-05-18T23:15:50.042Z,13.60
2019-05-18T23:18:19.138Z,13.60
2019-05-18T23:20:48.115Z,13.60
2019-05-18T23:23:16.557Z,13.60
2019-05-18T23:25:45.547Z,13.50
2019-05-18T23:28:14.617Z,13.50
2019-05-18T23:30:43.597Z,13.60
2019-05-18T23:33:12.602Z,13.60
2019-05-18T23:35:41.037Z,13.60
2019-05-18T23:38:10.047Z,13.70
2019-05-18T23:40:39.046Z,13.60
2019-05-18T23:43:08.042Z,13.60
2019-05-18T23:45:37.164Z,13.60
2019-05-18T23:48:06.168Z,13.60
2019-05-18T23:50:34.681Z,13.50
2019-05-18T23:53:03.733Z,13.50
2019-05-18T23:55:33.077Z,13.60
2019-05-18T23:58:05.801Z,13.60
